Phoenix-Mesa-Gateway Airport
KIWA : rendu visible

Aérodrome :











RETROUVEZ-NOUS SUR...

 
LOGIN :

S'inscrire | Disclaimer

   EN    FR    IT 

 









Légende :    VFR   VFR Marginal   IFR   IFR Intensif   IFR Très Intensif
Visi : 
Plafond : 
>= 8 km
>= 3000ft
5 à 8 km
1000 à 3000 ft
1500m à 5 km
500 à 1000 ft
800 à 1500m
200 à 500 ft
< 800m
< 200 ft
Symboles :   Orages  Brouillard  Fortes neiges  Fortes précipitations  Vent > 20 kt






- Altitude de l'aérodrome : 1382 ft


KIWA - Phoenix-Mesa-Gateway

DERNIER METAR :
  • 171750Z 00000KT 10SM SCT200 14/07 A3019

METARs EXPIRÉS :
  • 171647Z 14007KT 10SM SCT200 11/08 A3018
  • 171550Z 15008KT 10SM SCT200 08/06 A3015

TAF KIWA
Valide du 17 à 18h jusqu'au 18 à 18h UTC


171731Z 1718/1818 24004KT P6SM FEW080 SCT250
FM172100 29005KT P6SM BKN250
FM180300 11005KT P6SM FEW250



MET'MAP, la Météo Aéronautique d'un coup d'oeil ! - Copyright ORBIFLY Décembre 2007 - Disclaimer

ORBIFLY MET'MAP TEAM :

Programmation & Développement : Alexandra Zaïnal
Sur une idée originale de : Baudouin d'Aumeries
Assistance à la programmation : Marc-Olivier Méhu
Soutien technique & logistique : Manuel Goepfert

Contact : metmap@orbifly.com




SOURCES & CREDITS :

   NOAA       Earth
Advisory